Terminal Aerodrome Forecast
Issued by NWS

Home | Current Version | Previous Version | Text Only | Print | Product List | Glossary On
Versions: 1 2 3 4 5 6 7 8 9 10 11 12 13 14 15 16 17 18 19 20 21 22
000
FTUS42 KGSP 010700 AAA
TAFAND
TAF AMD
KAND 010753Z 0108/0206 06008KT P6SM -SHRA SCT007 OVC035
      TEMPO 0108/0112 4SM -SHRA BR OVC010
     FM011200 05005KT 2SM -SHRA BR OVC007
     FM011400 05005KT 6SM -SHRA OVC030
     FM011900 12005KT P6SM -SHRA OVC040 PROB30 0119/0124 4SM TSRA
      OVC016CB
     FM020300 07005KT P6SM BKN019=

USA.gov is the U.S. government's official web portal to all federal, state and local government web resources and services.